createdAt,value
2023-02-14T00:14:42.882Z,15.92
2023-02-14T00:34:49.726Z,15.16
2023-02-14T00:54:55.913Z,14.56
2023-02-14T01:15:01.763Z,14.10
2023-02-14T01:35:07.641Z,13.75
2023-02-14T01:55:13.532Z,13.86
2023-02-14T02:15:19.301Z,14.63
2023-02-14T02:35:25.276Z,14.42
2023-02-14T02:55:31.078Z,13.60
2023-02-14T05:36:32.015Z,13.70
2023-02-14T05:56:37.808Z,12.87
2023-02-14T06:16:43.693Z,13.83
2023-02-14T06:36:49.901Z,13.68
2023-02-14T06:56:55.715Z,12.62
2023-02-14T07:37:17.448Z,13.37
2023-02-14T07:57:13.151Z,13.17
2023-02-14T08:17:18.886Z,13.91
2023-02-14T08:37:25.456Z,15.08
2023-02-14T08:57:31.545Z,13.64
2023-02-14T09:17:37.250Z,10.50
2023-02-14T09:37:42.992Z,8.40
2023-02-14T09:57:48.735Z,9.42
2023-02-14T10:17:54.484Z,9.06
2023-02-14T10:38:00.238Z,9.25
2023-02-14T10:58:07.092Z,9.54
2023-02-14T11:18:12.810Z,8.87
2023-02-14T11:38:18.562Z,9.47
2023-02-14T11:58:25.756Z,9.07
2023-02-14T12:18:31.513Z,9.96
2023-02-14T12:38:38.071Z,9.48
2023-02-14T12:58:44.222Z,9.15
2023-02-14T13:18:50.994Z,10.51
2023-02-14T13:38:56.780Z,10.89
2023-02-14T13:59:02.507Z,11.03
2023-02-14T14:19:09.300Z,11.90
2023-02-14T14:39:15.032Z,10.88
2023-02-14T14:59:21.806Z,10.47
2023-02-14T15:19:27.589Z,11.24
2023-02-14T15:59:43.212Z,13.58
2023-02-14T16:19:50.145Z,11.65
2023-02-14T16:39:55.941Z,12.13
2023-02-14T17:00:01.903Z,16.22
2023-02-14T17:20:08.653Z,14.05
2023-02-14T17:40:14.459Z,15.43
2023-02-14T18:00:20.787Z,16.06
2023-02-14T18:20:25.613Z,15.81
2023-02-14T18:40:31.501Z,15.12
2023-02-14T19:00:37.381Z,14.71
2023-02-14T19:20:43.195Z,18.91
2023-02-14T19:40:50.000Z,13.29
2023-02-14T20:00:58.714Z,14.06
2023-02-14T20:21:01.404Z,14.03
2023-02-14T20:41:06.494Z,12.05
2023-02-14T21:01:14.109Z,17.46
2023-02-14T21:21:21.066Z,14.50
2023-02-14T21:41:28.096Z,15.93
2023-02-14T22:01:34.850Z,11.60
2023-02-14T22:21:41.524Z,10.66
2023-02-14T22:41:47.339Z,9.98
2023-02-14T23:01:54.112Z,10.51
2023-02-14T23:22:00.887Z,10.17
2023-02-14T23:42:06.743Z,11.82
